Time;durP1;ratioP1;P1;durP2;ratioP2;P2;SDS_P1;SDS_P2;PMS_P1;PMS_P2;Temp;Humidity;BMP_temperature;BMP_pressure;BME280_temperature;BME280_humidity;BME280_pressure;Samples;Min_cycle;Max_cycle;Signal;HPM_P1;HPM_P2
2022/04/06 00:00:05;;;;;;;64.40;7.83;;;;;;;;;;5094121;28;20450;-71
2022/04/06 00:02:32;;;;;;;62.90;7.03;;;;;;;;;;5094129;28;20533;-71
2022/04/06 00:05:00;;;;;;;64.70;7.53;;;;;;;;;;5094315;28;20446;-72
2022/04/06 00:07:28;;;;;;;62.67;7.33;;;;;;;;;;5093368;28;20829;-72
2022/04/06 00:09:56;;;;;;;63.80;6.90;;;;;;;;;;5093828;28;20454;-72
2022/04/06 00:12:23;;;;;;;64.23;7.03;;;;;;;;;;5093435;28;20485;-72
2022/04/06 00:14:50;;;;;;;62.57;6.47;;;;;;;;;;5093691;28;20872;-69
2022/04/06 00:17:17;;;;;;;63.70;7.80;;;;;;;;;;5093102;28;20557;-70
2022/04/06 00:19:44;;;;;;;64.03;7.13;;;;;;;;;;5093975;28;20544;-69
2022/04/06 00:22:12;;;;;;;62.00;6.73;;;;;;;;;;5093729;28;20457;-72
2022/04/06 00:24:40;;;;;;;61.70;7.17;;;;;;;;;;5093837;28;20487;-72
2022/04/06 00:27:08;;;;;;;66.67;6.90;;;;;;;;;;5089104;28;20469;-69
2022/04/06 00:29:35;;;;;;;62.17;6.77;;;;;;;;;;5093343;28;20544;-69
2022/04/06 00:32:02;;;;;;;63.47;7.87;;;;;;;;;;5093284;28;20961;-71
2022/04/06 00:37:14;;;;;;;62.30;7.17;;;;;;;;;;5092376;28;20440;-71
2022/04/06 00:39:42;;;;;;;68.70;7.10;;;;;;;;;;5093428;28;20456;-69
2022/04/06 00:42:09;;;;;;;61.90;6.80;;;;;;;;;;5093300;28;20459;-69
2022/04/06 00:44:37;;;;;;;62.07;6.30;;;;;;;;;;5093329;28;20468;-70
2022/04/06 00:47:05;;;;;;;61.20;6.30;;;;;;;;;;5093308;28;20521;-70
2022/04/06 00:49:33;;;;;;;63.70;7.40;;;;;;;;;;5092514;28;20489;-70
2022/04/06 00:52:01;;;;;;;61.47;6.43;;;;;;;;;;5092908;28;20442;-70
2022/04/06 00:54:29;;;;;;;62.83;6.60;;;;;;;;;;5092879;28;20939;-70
2022/04/06 00:56:58;;;;;;;61.97;6.87;;;;;;;;;;5093047;28;20977;-70
2022/04/06 00:59:26;;;;;;;61.57;6.23;;;;;;;;;;5089131;28;20449;-70
2022/04/06 01:01:54;;;;;;;63.07;6.00;;;;;;;;;;5092952;28;20482;-70
2022/04/06 01:04:21;;;;;;;60.90;6.40;;;;;;;;;;5092710;28;20452;-71
2022/04/06 01:06:49;;;;;;;61.60;6.60;;;;;;;;;;5093165;28;20551;-70
2022/04/06 01:09:16;;;;;;;62.23;6.80;;;;;;;;;;5091654;28;20950;-71
2022/04/06 01:11:45;;;;;;;61.87;6.60;;;;;;;;;;5093528;28;20460;-71
2022/04/06 01:14:15;;;;;;;62.10;6.23;;;;;;;;;;5092425;28;20867;-70
2022/04/06 01:16:42;;;;;;;62.00;6.60;;;;;;;;;;5092475;28;20471;-70
2022/04/06 01:19:09;;;;;;;63.07;6.57;;;;;;;;;;5091994;28;20449;-70
2022/04/06 01:21:36;;;;;;;61.50;5.83;;;;;;;;;;5092727;28;20453;-70
2022/04/06 01:24:05;;;;;;;60.97;6.07;;;;;;;;;;5092786;28;20528;-70
2022/04/06 01:26:34;;;;;;;62.47;6.90;;;;;;;;;;5092940;28;20451;-70
2022/04/06 01:29:02;;;;;;;61.53;6.57;;;;;;;;;;5091521;28;20508;-71
2022/04/06 01:31:29;;;;;;;63.47;7.20;;;;;;;;;;5088712;28;20461;-70
2022/04/06 01:33:56;;;;;;;60.70;6.13;;;;;;;;;;5092356;28;20480;-70
2022/04/06 01:36:23;;;;;;;61.40;6.80;;;;;;;;;;5092204;28;20536;-70
2022/04/06 01:38:50;;;;;;;62.80;7.07;;;;;;;;;;5091505;28;20520;-71
2022/04/06 01:41:19;;;;;;;61.70;6.60;;;;;;;;;;5092238;28;20452;-68
2022/04/06 01:43:46;;;;;;;63.77;7.00;;;;;;;;;;5092442;28;20529;-70
2022/04/06 01:46:13;;;;;;;61.23;6.40;;;;;;;;;;5091043;28;20532;-71
2022/04/06 01:52:12;;;;;;;62.57;6.53;;;;;;;;;;5091178;28;20569;-70
2022/04/06 01:54:12;;;;;;;61.37;6.63;;;;;;;;;;5091905;28;20527;-70
2022/04/06 01:56:41;;;;;;;61.60;7.03;;;;;;;;;;5077440;28;20800;-70
2022/04/06 01:59:08;;;;;;;63.10;7.10;;;;;;;;;;5070911;28;20827;-70
2022/04/06 02:01:36;;;;;;;63.00;7.17;;;;;;;;;;5071587;28;20631;-67
2022/04/06 02:04:06;;;;;;;63.40;6.70;;;;;;;;;;5069988;28;20446;-70
2022/04/06 02:06:33;;;;;;;60.47;5.63;;;;;;;;;;5072253;28;20451;-71
2022/04/06 02:09:00;;;;;;;61.57;6.43;;;;;;;;;;5070801;28;20470;-70
2022/04/06 02:11:28;;;;;;;63.00;6.30;;;;;;;;;;5071626;28;20835;-71
2022/04/06 02:13:57;;;;;;;62.53;6.50;;;;;;;;;;5071694;28;20576;-71
2022/04/06 02:16:24;;;;;;;62.30;6.37;;;;;;;;;;5071193;28;20927;-70
2022/04/06 02:18:51;;;;;;;61.20;6.77;;;;;;;;;;5070910;28;20769;-71
2022/04/06 02:21:19;;;;;;;61.87;6.20;;;;;;;;;;5071736;28;20454;-70
2022/04/06 02:23:46;;;;;;;60.70;5.67;;;;;;;;;;5071711;28;20460;-68
2022/04/06 02:26:13;;;;;;;61.07;6.13;;;;;;;;;;5071683;28;20450;-70
2022/04/06 02:28:40;;;;;;;62.03;6.50;;;;;;;;;;5070717;28;20578;-71
2022/04/06 02:31:08;;;;;;;61.17;5.83;;;;;;;;;;5071016;28;20453;-71
2022/04/06 02:33:36;;;;;;;63.03;6.53;;;;;;;;;;5070280;28;21034;-70
2022/04/06 02:36:03;;;;;;;63.50;6.73;;;;;;;;;;5071170;28;20464;-71
2022/04/06 02:38:30;;;;;;;62.33;6.57;;;;;;;;;;5071052;28;20475;-70
2022/04/06 02:40:57;;;;;;;62.27;6.80;;;;;;;;;;5071505;28;20450;-70
2022/04/06 02:43:25;;;;;;;61.83;6.70;;;;;;;;;;5072020;28;20939;-69
2022/04/06 02:45:52;;;;;;;63.27;6.60;;;;;;;;;;5071376;28;20449;-71
2022/04/06 02:48:20;;;;;;;63.57;6.10;;;;;;;;;;5070707;28;20463;-70
2022/04/06 02:50:47;;;;;;;61.80;6.50;;;;;;;;;;5071421;28;20958;-70
2022/04/06 02:53:14;;;;;;;64.67;6.70;;;;;;;;;;5071455;28;20455;-69
2022/04/06 02:55:41;;;;;;;62.23;6.57;;;;;;;;;;5071362;28;20505;-70
2022/04/06 02:58:09;;;;;;;61.10;6.53;;;;;;;;;;5073791;28;20550;-71
2022/04/06 03:00:36;;;;;;;62.67;6.77;;;;;;;;;;5075453;28;20457;-70
2022/04/06 03:03:03;;;;;;;61.90;6.77;;;;;;;;;;5075248;28;20505;-71
2022/04/06 03:05:32;;;;;;;61.73;6.50;;;;;;;;;;5075239;28;21048;-71
2022/04/06 03:07:59;;;;;;;61.37;7.20;;;;;;;;;;5074434;28;20838;-70
2022/04/06 03:10:26;;;;;;;63.20;7.30;;;;;;;;;;5075025;28;20537;-70
2022/04/06 03:12:53;;;;;;;62.83;6.60;;;;;;;;;;5075196;28;20447;-70
2022/04/06 03:15:21;;;;;;;61.23;7.00;;;;;;;;;;5075091;28;20524;-71
2022/04/06 03:17:48;;;;;;;62.20;6.50;;;;;;;;;;5074291;28;20915;-71
2022/04/06 03:20:15;;;;;;;61.60;6.40;;;;;;;;;;5074834;28;20947;-71
2022/04/06 03:22:43;;;;;;;64.07;5.80;;;;;;;;;;5074829;28;20446;-71
2022/04/06 03:25:11;;;;;;;62.83;6.17;;;;;;;;;;5074722;28;20897;-72
2022/04/06 03:27:38;;;;;;;62.77;6.90;;;;;;;;;;5074153;28;20508;-71
2022/04/06 03:30:06;;;;;;;60.70;6.30;;;;;;;;;;5074770;28;20446;-70
2022/04/06 03:32:33;;;;;;;61.97;7.10;;;;;;;;;;5074549;28;21015;-71
2022/04/06 03:35:01;;;;;;;61.77;6.60;;;;;;;;;;5074689;28;20489;-71
2022/04/06 03:37:28;;;;;;;61.67;6.60;;;;;;;;;;5073790;28;20474;-70
2022/04/06 03:39:56;;;;;;;62.03;6.40;;;;;;;;;;5074436;28;20529;-71
2022/04/06 03:42:23;;;;;;;61.93;7.00;;;;;;;;;;5074470;28;20807;-71
2022/04/06 03:44:51;;;;;;;61.63;6.03;;;;;;;;;;5074503;28;20530;-71
2022/04/06 03:47:18;;;;;;;62.37;6.27;;;;;;;;;;5073680;28;20471;-71
2022/04/06 03:49:45;;;;;;;63.27;7.03;;;;;;;;;;5074281;28;20462;-71
2022/04/06 03:52:12;;;;;;;62.27;7.03;;;;;;;;;;5074242;28;20457;-71
2022/04/06 03:54:40;;;;;;;61.17;6.17;;;;;;;;;;5074437;28;20826;-72
2022/04/06 03:57:09;;;;;;;63.43;6.57;;;;;;;;;;5074022;28;20561;-71
2022/04/06 03:59:36;;;;;;;63.47;7.00;;;;;;;;;;5074231;28;20832;-72
2022/04/06 04:02:03;;;;;;;62.73;6.23;;;;;;;;;;5074315;28;20453;-71
2022/04/06 04:04:30;;;;;;;62.47;7.10;;;;;;;;;;5073957;28;20530;-72
2022/04/06 04:06:57;;;;;;;62.10;7.23;;;;;;;;;;5073811;28;20443;-72
2022/04/06 04:09:24;;;;;;;63.53;6.63;;;;;;;;;;5072082;28;20454;-71
2022/04/06 04:11:51;;;;;;;62.57;7.07;;;;;;;;;;5074055;28;20457;-72
2022/04/06 04:14:20;;;;;;;61.97;6.73;;;;;;;;;;5073906;28;20474;-68
2022/04/06 04:16:47;;;;;;;64.87;7.20;;;;;;;;;;5073795;28;20447;-70
2022/04/06 04:19:15;;;;;;;68.33;7.60;;;;;;;;;;5072948;28;20450;-70
2022/04/06 04:21:43;;;;;;;63.30;7.10;;;;;;;;;;5073912;28;20494;-71
2022/04/06 04:24:10;;;;;;;62.43;6.83;;;;;;;;;;5073727;28;20456;-70
2022/04/06 04:26:39;;;;;;;61.17;6.20;;;;;;;;;;5073537;28;20458;-70
2022/04/06 04:29:07;;;;;;;63.77;7.20;;;;;;;;;;5072820;28;20989;-70
2022/04/06 04:31:36;;;;;;;65.17;6.27;;;;;;;;;;5073569;28;20519;-71
2022/04/06 04:34:03;;;;;;;62.77;6.40;;;;;;;;;;5073346;28;20473;-70
2022/04/06 04:36:30;;;;;;;60.50;6.00;;;;;;;;;;5073719;28;20918;-71
2022/04/06 04:38:58;;;;;;;62.10;6.70;;;;;;;;;;5072690;28;21015;-71
2022/04/06 04:41:26;;;;;;;71.07;7.73;;;;;;;;;;5073602;28;20447;-71
2022/04/06 04:43:53;;;;;;;62.77;7.23;;;;;;;;;;5073165;28;20454;-70
2022/04/06 04:46:21;;;;;;;63.40;7.27;;;;;;;;;;5073264;28;20809;-72
2022/04/06 04:48:49;;;;;;;61.57;7.17;;;;;;;;;;5072562;28;20547;-70
2022/04/06 04:51:16;;;;;;;63.53;7.00;;;;;;;;;;5073533;28;20454;-70
2022/04/06 04:53:44;;;;;;;63.37;7.27;;;;;;;;;;5073137;28;20457;-71
2022/04/06 04:56:11;;;;;;;62.87;7.90;;;;;;;;;;5072883;28;20482;-70
2022/04/06 04:58:38;;;;;;;64.20;8.10;;;;;;;;;;5072208;28;20865;-71
2022/04/06 05:01:07;;;;;;;64.47;7.43;;;;;;;;;;5072812;28;20542;-71
2022/04/06 05:03:35;;;;;;;66.13;7.13;;;;;;;;;;5073090;28;20512;-70
2022/04/06 05:06:03;;;;;;;62.50;7.00;;;;;;;;;;5073190;28;20697;-70
2022/04/06 05:08:30;;;;;;;62.67;7.60;;;;;;;;;;5072139;28;20488;-70
2022/04/06 05:10:57;;;;;;;61.90;6.67;;;;;;;;;;5072570;28;20439;-71
2022/04/06 05:13:24;;;;;;;62.50;7.17;;;;;;;;;;5072613;28;20450;-70
2022/04/06 05:15:52;;;;;;;64.20;7.57;;;;;;;;;;5072655;28;21019;-71
2022/04/06 05:18:19;;;;;;;62.60;6.53;;;;;;;;;;5072009;28;20473;-71
2022/04/06 05:20:46;;;;;;;64.37;6.77;;;;;;;;;;5072504;28;20537;-71
2022/04/06 05:23:15;;;;;;;65.30;7.77;;;;;;;;;;5072520;28;20503;-70
2022/04/06 05:25:44;;;;;;;63.50;7.30;;;;;;;;;;5072367;28;20549;-71
2022/04/06 05:28:11;;;;;;;63.23;7.57;;;;;;;;;;5071593;28;20483;-70
2022/04/06 05:30:40;;;;;;;70.70;8.30;;;;;;;;;;5072591;28;20825;-71
2022/04/06 05:33:08;;;;;;;62.87;6.80;;;;;;;;;;5072440;28;20458;-71
2022/04/06 05:35:35;;;;;;;66.27;7.43;;;;;;;;;;5072318;28;20478;-71
2022/04/06 05:38:02;;;;;;;62.40;7.70;;;;;;;;;;5071959;28;20466;-71
2022/04/06 05:40:31;;;;;;;66.00;8.97;;;;;;;;;;5072100;28;20454;-73
2022/04/06 05:42:58;;;;;;;64.77;8.27;;;;;;;;;;5072356;28;20446;-72
2022/04/06 05:45:25;;;;;;;65.77;7.03;;;;;;;;;;5072396;28;20473;-72
2022/04/06 05:47:52;;;;;;;65.30;7.30;;;;;;;;;;5072237;28;20465;-72
2022/04/06 05:50:19;;;;;;;63.23;7.83;;;;;;;;;;5071881;28;20455;-71
2022/04/06 05:52:48;;;;;;;65.40;8.13;;;;;;;;;;5072118;28;20450;-71
2022/04/06 05:55:16;;;;;;;65.47;7.83;;;;;;;;;;5071807;28;20524;-71
2022/04/06 05:57:44;;;;;;;65.30;8.40;;;;;;;;;;5070796;28;20476;-72
2022/04/06 06:00:12;;;;;;;66.07;8.10;;;;;;;;;;5072157;28;20892;-72
2022/04/06 06:02:40;;;;;;;64.53;7.63;;;;;;;;;;5071967;28;20454;-70
2022/04/06 06:05:08;;;;;;;64.27;8.60;;;;;;;;;;5071838;28;21015;-72
2022/04/06 06:07:35;;;;;;;62.90;7.60;;;;;;;;;;5071044;28;20467;-72
2022/04/06 06:10:03;;;;;;;67.13;7.97;;;;;;;;;;5071738;28;20509;-70
2022/04/06 06:12:30;;;;;;;63.47;8.00;;;;;;;;;;5071686;28;20450;-71
2022/04/06 06:15:00;;;;;;;64.17;8.03;;;;;;;;;;5071824;28;20523;-72
2022/04/06 06:17:27;;;;;;;64.33;8.77;;;;;;;;;;5071075;28;20477;-71
2022/04/06 06:19:54;;;;;;;63.87;8.53;;;;;;;;;;5071818;28;20443;-70
2022/04/06 06:22:21;;;;;;;65.40;8.77;;;;;;;;;;5071810;28;20450;-72
2022/04/06 06:24:48;;;;;;;67.57;7.67;;;;;;;;;;5071887;28;20545;-72
2022/04/06 06:27:19;;;;;;;63.67;8.30;;;;;;;;;;5070988;28;20463;-72
2022/04/06 06:29:46;;;;;;;63.37;8.00;;;;;;;;;;5071649;28;20461;-71
2022/04/06 06:32:15;;;;;;;63.97;8.30;;;;;;;;;;5073467;28;20468;-72
2022/04/06 06:34:42;;;;;;;62.50;8.37;;;;;;;;;;5075775;28;20454;-71
2022/04/06 06:37:10;;;;;;;62.70;7.57;;;;;;;;;;5075339;28;20502;-65
2022/04/06 06:39:38;;;;;;;62.30;7.53;;;;;;;;;;5075588;28;21034;-72
2022/04/06 06:42:05;;;;;;;64.07;7.87;;;;;;;;;;5075666;28;20812;-71
2022/04/06 06:44:32;;;;;;;62.43;6.47;;;;;;;;;;5075588;28;20529;-72
2022/04/06 06:46:59;;;;;;;63.20;7.73;;;;;;;;;;5075401;28;20454;-72
2022/04/06 06:49:28;;;;;;;63.30;7.50;;;;;;;;;;5074822;28;20635;-72
2022/04/06 06:51:55;;;;;;;61.70;7.30;;;;;;;;;;5075682;28;20454;-69
2022/04/06 06:54:22;;;;;;;64.80;7.67;;;;;;;;;;5075970;28;20530;-70
2022/04/06 06:56:49;;;;;;;62.07;6.90;;;;;;;;;;5075389;28;21033;-70
2022/04/06 06:59:17;;;;;;;64.40;7.87;;;;;;;;;;5074692;28;20472;-70
2022/04/06 07:01:44;;;;;;;62.70;7.07;;;;;;;;;;5075975;28;20446;-68
2022/04/06 07:04:11;;;;;;;61.63;6.80;;;;;;;;;;5074671;28;20450;-70
2022/04/06 07:06:39;;;;;;;61.97;6.97;;;;;;;;;;5074747;28;20526;-72
2022/04/06 07:09:07;;;;;;;64.27;7.07;;;;;;;;;;5074358;28;20467;-70
2022/04/06 07:11:34;;;;;;;63.17;7.63;;;;;;;;;;5075087;28;20451;-70
2022/04/06 07:14:01;;;;;;;63.00;7.50;;;;;;;;;;5074963;28;20451;-70
2022/04/06 07:16:29;;;;;;;67.20;7.07;;;;;;;;;;5075047;28;20478;-70
2022/04/06 07:18:56;;;;;;;62.17;7.00;;;;;;;;;;5073225;28;20570;-70
2022/04/06 07:21:23;;;;;;;62.10;6.77;;;;;;;;;;5074417;28;20996;-71
2022/04/06 07:23:53;;;;;;;61.53;5.70;;;;;;;;;;5074612;28;20457;-70
2022/04/06 07:26:20;;;;;;;62.53;6.47;;;;;;;;;;5074868;28;20476;-71
2022/04/06 07:28:47;;;;;;;65.67;6.17;;;;;;;;;;5073899;28;20551;-71
2022/04/06 07:31:15;;;;;;;66.10;5.70;;;;;;;;;;5074716;28;20457;-71
2022/04/06 07:33:42;;;;;;;63.80;6.80;;;;;;;;;;5074562;28;20453;-69
2022/04/06 07:36:09;;;;;;;61.37;5.93;;;;;;;;;;5074111;28;21132;-70
2022/04/06 07:38:36;;;;;;;61.70;6.37;;;;;;;;;;5093320;28;20476;-69
2022/04/06 07:41:05;;;;;;;61.90;6.43;;;;;;;;;;5098746;28;20464;-71
2022/04/06 07:43:32;;;;;;;65.60;6.83;;;;;;;;;;5095380;28;20497;-70
2022/04/06 07:45:59;;;;;;;60.57;5.53;;;;;;;;;;5096239;28;20478;-72
2022/04/06 07:48:27;;;;;;;61.40;5.80;;;;;;;;;;5093951;28;20468;-70
2022/04/06 07:50:55;;;;;;;61.07;5.57;;;;;;;;;;5090341;28;20457;-70
2022/04/06 07:53:22;;;;;;;61.00;5.70;;;;;;;;;;5094005;28;20525;-72
2022/04/06 07:55:50;;;;;;;61.00;5.67;;;;;;;;;;5094412;28;21091;-71
2022/04/06 07:58:19;;;;;;;62.57;6.10;;;;;;;;;;5092959;28;20896;-72
2022/04/06 08:00:46;;;;;;;62.77;6.20;;;;;;;;;;5093954;28;20447;-74
2022/04/06 08:03:13;;;;;;;61.70;5.53;;;;;;;;;;5094019;28;20447;-72
2022/04/06 08:05:41;;;;;;;63.20;5.70;;;;;;;;;;5094041;28;20818;-72
2022/04/06 08:08:08;;;;;;;60.53;5.00;;;;;;;;;;5092649;28;20462;-71
2022/04/06 08:10:35;;;;;;;61.57;5.23;;;;;;;;;;5093863;28;20450;-71
2022/04/06 08:13:02;;;;;;;60.60;4.90;;;;;;;;;;5093671;28;20550;-71
2022/04/06 08:15:31;;;;;;;60.77;5.40;;;;;;;;;;5093598;28;20546;-72
2022/04/06 08:17:58;;;;;;;61.50;5.73;;;;;;;;;;5092762;28;20462;-72
2022/04/06 08:20:26;;;;;;;60.17;5.07;;;;;;;;;;5092723;28;20448;-72
2022/04/06 08:22:53;;;;;;;60.33;5.03;;;;;;;;;;5090480;28;20454;-72
2022/04/06 08:25:20;;;;;;;60.27;5.77;;;;;;;;;;5093278;28;20454;-73
2022/04/06 08:27:48;;;;;;;61.73;6.00;;;;;;;;;;5092715;28;20986;-72
2022/04/06 08:30:16;;;;;;;59.73;4.33;;;;;;;;;;5093482;28;20442;-72
2022/04/06 08:32:45;;;;;;;61.60;4.43;;;;;;;;;;5093448;28;20446;-70
2022/04/06 08:35:12;;;;;;;59.53;3.97;;;;;;;;;;5093752;28;20537;-72
2022/04/06 08:37:40;;;;;;;60.93;4.93;;;;;;;;;;5092103;28;20482;-73
2022/04/06 08:40:09;;;;;;;61.70;5.30;;;;;;;;;;5093873;28;20442;-73
2022/04/06 08:42:36;;;;;;;61.07;5.37;;;;;;;;;;5093698;28;20887;-71
2022/04/06 08:45:03;;;;;;;59.17;3.40;;;;;;;;;;5093929;28;20541;-73
2022/04/06 08:47:31;;;;;;;58.47;3.17;;;;;;;;;;5092753;28;21001;-72
2022/04/06 08:50:00;;;;;;;58.80;3.17;;;;;;;;;;5093571;28;20481;-73
2022/04/06 08:52:27;;;;;;;59.47;3.93;;;;;;;;;;5091396;28;20443;-68
2022/04/06 08:54:54;;;;;;;60.03;3.30;;;;;;;;;;5090588;28;21026;-72
2022/04/06 08:57:22;;;;;;;58.37;3.17;;;;;;;;;;5092007;28;20486;-73
2022/04/06 08:59:49;;;;;;;59.47;3.10;;;;;;;;;;5093419;28;20969;-73
2022/04/06 09:02:20;;;;;;;58.70;2.93;;;;;;;;;;5093225;28;20468;-72
2022/04/06 09:04:50;;;;;;;58.83;3.43;;;;;;;;;;5093076;28;20451;-72
2022/04/06 09:07:20;;;;;;;59.93;5.13;;;;;;;;;;5092535;28;20473;-72
2022/04/06 09:09:50;;;;;;;59.87;4.37;;;;;;;;;;5092470;28;20447;-73
2022/04/06 09:12:19;;;;;;;61.30;4.83;;;;;;;;;;5092593;28;20450;-72
2022/04/06 09:14:46;;;;;;;59.80;4.40;;;;;;;;;;5092405;28;20452;-72
2022/04/06 09:17:13;;;;;;;61.80;5.10;;;;;;;;;;5091421;28;20990;-72
2022/04/06 09:19:46;;;;;;;60.37;4.10;;;;;;;;;;5092464;28;20450;-73
2022/04/06 09:22:13;;;;;;;59.90;4.33;;;;;;;;;;5092979;28;20464;-72
2022/04/06 09:24:42;;;;;;;60.43;3.80;;;;;;;;;;5088624;28;20463;-73
2022/04/06 09:27:09;;;;;;;59.57;3.73;;;;;;;;;;5092788;28;20632;-72
2022/04/06 09:29:39;;;;;;;58.87;3.40;;;;;;;;;;5094880;28;20513;-73
2022/04/06 09:32:10;;;;;;;60.17;3.63;;;;;;;;;;5100261;28;20451;-73
2022/04/06 09:34:37;;;;;;;58.80;3.30;;;;;;;;;;5101291;28;20448;-71
2022/04/06 09:37:25;;;;;;;58.17;3.20;;;;;;;;;;5100613;28;21084;-73
2022/04/06 09:39:56;;;;;;;58.63;3.00;;;;;;;;;;5093394;28;20460;-72
2022/04/06 09:42:23;;;;;;;59.10;2.90;;;;;;;;;;5094068;28;20453;-72
2022/04/06 09:47:44;;;;;;;61.43;3.00;;;;;;;;;;5092517;28;20447;-73
2022/04/06 09:50:19;;;;;;;58.70;3.00;;;;;;;;;;5092350;28;20480;-73
2022/04/06 09:52:47;;;;;;;59.87;2.80;;;;;;;;;;5091987;28;20506;-73
2022/04/06 09:55:16;;;;;;;58.87;2.40;;;;;;;;;;5092440;28;20441;-72
2022/04/06 09:57:45;;;;;;;58.50;2.80;;;;;;;;;;5091493;28;20580;-73
2022/04/06 10:00:14;;;;;;;58.90;2.77;;;;;;;;;;5092410;28;20448;-73
2022/04/06 10:02:44;;;;;;;58.30;2.80;;;;;;;;;;5091996;28;20821;-72
2022/04/06 10:05:13;;;;;;;58.77;3.03;;;;;;;;;;5091951;28;20538;-73
2022/04/06 10:07:41;;;;;;;58.17;2.60;;;;;;;;;;5090680;28;20477;-73
2022/04/06 10:10:09;;;;;;;58.10;2.70;;;;;;;;;;5092377;28;20749;-73
2022/04/06 10:12:37;;;;;;;59.30;3.00;;;;;;;;;;5091979;28;20457;-73
2022/04/06 10:15:05;;;;;;;57.97;2.40;;;;;;;;;;5091992;28;20499;-72
2022/04/06 10:17:35;;;;;;;58.97;2.60;;;;;;;;;;5090860;28;20510;-72
2022/04/06 10:20:07;;;;;;;57.97;2.50;;;;;;;;;;5092023;28;20602;-74
2022/04/06 10:22:40;;;;;;;58.40;2.60;;;;;;;;;;5091742;28;20480;-74
2022/04/06 10:25:10;;;;;;;58.17;2.63;;;;;;;;;;5091241;28;20451;-73
2022/04/06 10:27:41;;;;;;;58.07;2.50;;;;;;;;;;5091401;28;20511;-73
2022/04/06 10:30:09;;;;;;;57.83;2.90;;;;;;;;;;5071507;28;20843;-73
2022/04/06 10:32:36;;;;;;;58.23;2.67;;;;;;;;;;5071916;28;20533;-72
2022/04/06 10:35:17;;;;;;;57.97;2.60;;;;;;;;;;5071467;28;20545;-72
2022/04/06 10:37:55;;;;;;;58.07;2.70;;;;;;;;;;5070863;28;20495;-73
2022/04/06 10:40:22;;;;;;;57.97;2.40;;;;;;;;;;5071467;28;20965;-72
2022/04/06 10:42:51;;;;;;;58.47;2.50;;;;;;;;;;5071281;28;20503;-72
2022/04/06 10:45:37;;;;;;;57.83;2.40;;;;;;;;;;5071754;28;20456;-72
2022/04/06 10:48:10;;;;;;;59.47;2.60;;;;;;;;;;5071203;28;20462;-71
2022/04/06 10:50:38;;;;;;;60.57;2.50;;;;;;;;;;5071261;28;20446;-72
2022/04/06 10:53:23;;;;;;;58.37;2.67;;;;;;;;;;5071455;28;20452;-72
2022/04/06 10:55:57;;;;;;;59.10;2.47;;;;;;;;;;5071426;28;20533;-72
2022/04/06 10:58:26;;;;;;;57.60;2.80;;;;;;;;;;5069765;28;20494;-72
2022/04/06 11:01:09;;;;;;;57.83;2.30;;;;;;;;;;5077835;28;20762;-72
2022/04/06 11:03:38;;;;;;;57.90;2.30;;;;;;;;;;5089528;28;20989;-72
2022/04/06 11:06:05;;;;;;;58.70;2.40;;;;;;;;;;5091424;28;20872;-73
2022/04/06 11:11:40;;;;;;;58.30;2.30;;;;;;;;;;5091398;28;20464;-72
2022/04/06 11:14:09;;;;;;;58.67;2.40;;;;;;;;;;5091100;28;20457;-74
2022/04/06 11:16:43;;;;;;;57.87;2.20;;;;;;;;;;5091437;28;20537;-71
2022/04/06 11:19:10;;;;;;;58.00;2.30;;;;;;;;;;5094104;28;20550;-73
2022/04/06 11:21:46;;;;;;;57.87;2.13;;;;;;;;;;5095193;28;20530;-73
2022/04/06 11:24:17;;;;;;;57.67;1.83;;;;;;;;;;5095065;28;20442;-74
2022/04/06 11:26:44;;;;;;;57.87;2.10;;;;;;;;;;5095270;28;20514;-73
2022/04/06 11:29:13;;;;;;;57.87;2.07;;;;;;;;;;5094380;28;20522;-73
2022/04/06 11:31:53;;;;;;;57.90;2.10;;;;;;;;;;5094870;28;20458;-74
2022/04/06 11:34:30;;;;;;;57.80;2.00;;;;;;;;;;5079655;28;20482;-74
2022/04/06 11:36:58;;;;;;;57.77;2.17;;;;;;;;;;5074490;28;20443;-74
2022/04/06 11:39:25;;;;;;;58.70;2.33;;;;;;;;;;5074327;28;20447;-73
2022/04/06 11:41:52;;;;;;;57.93;1.93;;;;;;;;;;5074872;28;20817;-74
2022/04/06 11:44:24;;;;;;;57.93;1.97;;;;;;;;;;5074621;28;20878;-73
2022/04/06 11:46:52;;;;;;;59.30;2.10;;;;;;;;;;5074425;28;20479;-73
2022/04/06 11:49:24;;;;;;;57.60;2.00;;;;;;;;;;5073539;28;20465;-74
2022/04/06 11:51:51;;;;;;;57.70;2.00;;;;;;;;;;5074667;28;20538;-74
2022/04/06 11:54:19;;;;;;;57.83;2.17;;;;;;;;;;5074275;28;20447;-74
2022/04/06 11:56:49;;;;;;;57.57;1.93;;;;;;;;;;5074518;28;20799;-74
2022/04/06 11:59:18;;;;;;;57.80;2.10;;;;;;;;;;5073698;28;20456;-74
2022/04/06 12:01:47;;;;;;;57.53;1.87;;;;;;;;;;5074274;28;20508;-74
2022/04/06 12:04:15;;;;;;;59.03;2.20;;;;;;;;;;5073639;28;20879;-74
2022/04/06 12:06:43;;;;;;;59.67;3.20;;;;;;;;;;5071400;28;20530;-74
2022/04/06 12:09:10;;;;;;;58.50;2.50;;;;;;;;;;5073322;28;20546;-73
2022/04/06 12:11:38;;;;;;;58.67;2.57;;;;;;;;;;5074015;28;20454;-74
2022/04/06 12:14:05;;;;;;;59.83;3.30;;;;;;;;;;5073917;28;20538;-74
2022/04/06 12:16:33;;;;;;;58.50;3.00;;;;;;;;;;5073577;28;20447;-73
2022/04/06 12:19:03;;;;;;;59.97;4.23;;;;;;;;;;5073384;28;20477;-74
2022/04/06 12:21:30;;;;;;;60.40;4.20;;;;;;;;;;5073780;28;20549;-73
2022/04/06 12:23:57;;;;;;;58.33;2.53;;;;;;;;;;5073573;28;20538;-74
2022/04/06 12:26:25;;;;;;;58.60;3.00;;;;;;;;;;5073474;28;20814;-73
2022/04/06 12:28:58;;;;;;;58.20;2.67;;;;;;;;;;5071986;28;20483;-73
2022/04/06 12:31:33;;;;;;;57.97;2.40;;;;;;;;;;5073355;28;21023;-74
2022/04/06 12:34:01;;;;;;;58.70;3.07;;;;;;;;;;5073391;28;21009;-72
2022/04/06 12:36:30;;;;;;;58.53;2.80;;;;;;;;;;5073216;28;20531;-70
2022/04/06 12:39:00;;;;;;;61.53;3.13;;;;;;;;;;5070636;28;20569;-73
2022/04/06 12:41:28;;;;;;;58.70;2.83;;;;;;;;;;5073146;28;20556;-73
2022/04/06 12:43:55;;;;;;;57.83;2.53;;;;;;;;;;5073202;28;20461;-73
2022/04/06 12:46:39;;;;;;;58.47;2.30;;;;;;;;;;5073242;28;20960;-72
2022/04/06 12:49:24;;;;;;;57.40;2.30;;;;;;;;;;5072361;28;20488;-74
2022/04/06 12:52:03;;;;;;;57.73;2.10;;;;;;;;;;5073041;28;20458;-74
2022/04/06 12:54:31;;;;;;;58.57;2.00;;;;;;;;;;5073017;28;20454;-74
2022/04/06 12:57:05;;;;;;;57.80;1.97;;;;;;;;;;5073133;28;20455;-71
2022/04/06 12:59:37;;;;;;;57.93;2.20;;;;;;;;;;5072685;28;20447;-74
2022/04/06 13:02:04;;;;;;;57.90;2.07;;;;;;;;;;5073080;28;20449;-74
2022/04/06 13:04:33;;;;;;;58.97;2.10;;;;;;;;;;5072776;28;20451;-74
2022/04/06 13:07:00;;;;;;;57.60;2.07;;;;;;;;;;5072696;28;20448;-74
2022/04/06 13:09:27;;;;;;;63.00;2.10;;;;;;;;;;5072182;28;20450;-73
2022/04/06 13:11:54;;;;;;;57.70;2.00;;;;;;;;;;5089555;28;20536;-74
2022/04/06 13:14:23;;;;;;;57.70;1.97;;;;;;;;;;5092963;28;20511;-74
2022/04/06 13:16:51;;;;;;;57.37;1.70;;;;;;;;;;5093367;28;20462;-75
2022/04/06 13:19:18;;;;;;;57.33;1.80;;;;;;;;;;5092571;28;21010;-74
2022/04/06 13:21:46;;;;;;;57.40;1.80;;;;;;;;;;5093560;28;20829;-74
2022/04/06 13:24:13;;;;;;;57.70;1.93;;;;;;;;;;5093462;28;20540;-74
2022/04/06 13:26:41;;;;;;;57.20;1.67;;;;;;;;;;5092869;28;20542;-77
2022/04/06 13:29:08;;;;;;;57.57;1.90;;;;;;;;;;5091853;28;20491;-72
2022/04/06 13:31:39;;;;;;;58.57;1.90;;;;;;;;;;5092721;28;20454;-74
2022/04/06 13:34:07;;;;;;;59.57;2.00;;;;;;;;;;5092853;28;20821;-74
2022/04/06 13:36:34;;;;;;;57.37;1.73;;;;;;;;;;5092606;28;20446;-74
2022/04/06 13:39:02;;;;;;;57.60;2.00;;;;;;;;;;5092214;28;20541;-74
2022/04/06 13:41:30;;;;;;;57.70;2.00;;;;;;;;;;5088685;28;20610;-74
2022/04/06 13:43:57;;;;;;;57.40;1.60;;;;;;;;;;5071744;28;20483;-74
2022/04/06 13:46:24;;;;;;;58.30;2.10;;;;;;;;;;5072056;28;20529;-73
2022/04/06 13:48:52;;;;;;;57.87;2.20;;;;;;;;;;5071406;28;20487;-73
2022/04/06 13:51:19;;;;;;;57.97;2.10;;;;;;;;;;5072170;28;20927;-73
2022/04/06 13:53:46;;;;;;;58.27;2.20;;;;;;;;;;5072215;28;20450;-73
2022/04/06 13:56:15;;;;;;;57.90;2.20;;;;;;;;;;5072095;28;20453;-73
2022/04/06 13:58:42;;;;;;;58.03;2.37;;;;;;;;;;5071203;28;20997;-74
2022/04/06 14:01:09;;;;;;;60.10;2.47;;;;;;;;;;5072246;28;20542;-73
2022/04/06 14:03:38;;;;;;;57.87;2.33;;;;;;;;;;5072132;28;20552;-74
2022/04/06 14:06:05;;;;;;;60.80;3.50;;;;;;;;;;5071834;28;20546;-73
2022/04/06 14:08:32;;;;;;;59.10;2.40;;;;;;;;;;5070967;28;20487;-74
2022/04/06 14:11:00;;;;;;;58.17;2.33;;;;;;;;;;5071397;28;21026;-73
2022/04/06 14:13:28;;;;;;;58.60;2.60;;;;;;;;;;5076713;28;20453;-73
2022/04/06 14:15:56;;;;;;;59.33;2.60;;;;;;;;;;5091901;28;20454;-74
2022/04/06 14:18:23;;;;;;;58.40;2.40;;;;;;;;;;5091520;28;21035;-73
2022/04/06 14:20:50;;;;;;;57.93;2.40;;;;;;;;;;5092110;28;20554;-74
2022/04/06 14:23:18;;;;;;;57.97;2.07;;;;;;;;;;5091895;28;20453;-74
2022/04/06 14:25:45;;;;;;;58.40;2.23;;;;;;;;;;5091874;28;20451;-74
2022/04/06 14:28:12;;;;;;;57.97;1.93;;;;;;;;;;5091085;28;20645;-74
2022/04/06 14:30:48;;;;;;;57.63;2.20;;;;;;;;;;5092382;28;20474;-74
2022/04/06 14:33:16;;;;;;;57.40;1.87;;;;;;;;;;5091893;28;20453;-73
2022/04/06 14:35:43;;;;;;;58.17;2.13;;;;;;;;;;5091820;28;20458;-73
2022/04/06 14:38:10;;;;;;;58.00;2.27;;;;;;;;;;5090962;28;20569;-74
2022/04/06 14:40:37;;;;;;;59.13;2.33;;;;;;;;;;5091960;28;20446;-72
2022/04/06 14:43:04;;;;;;;58.57;2.67;;;;;;;;;;5091753;28;20819;-74
2022/04/06 14:45:31;;;;;;;59.00;2.80;;;;;;;;;;5088688;28;20457;-72
2022/04/06 14:48:00;;;;;;;58.63;2.73;;;;;;;;;;5090931;28;20478;-73